world map with GZP marked

GZP - Airport

This information may not be accurate or current and is not valid for navigation or flight planning. No warranty of fitness for any purpose is made or implied.

flag of Turkey

Donate via PayPal

Additional information is available on the NEW Great Circle Mapper

Location
City:  Gazipasa, Antalya, Turkey
Name:Gazipasa Alanya Airport
ICAO / IATA:LTFG / GZP

Details
Type:Airport (Aerodrome, Airfield)
Use:Public/Civil
Latitude:36°17'57"N (36.299167)
Longitude:32°18'01"E (32.300278)
Elevation:92 ft (28 m)
Runways:1
Longest:5988 × 123 ft (1825 × 37.5 m)

Time
Timezone:UTC+3 (DST+5)
Local Time:

Weather
METAR:LTFG  041350Z 25007KT 210V300 9999 FEW030 SCT200 17/08 Q1020

Related Locations
Nearby:
Farthest:RVV: 11575 mi / 18628 km
Raivavae, Tubuai Islands, Austral Islands, PF

Find:

   beyond  
but within

Other Information
Maps:
Links:
Sources:

  


 


Great Circle Mapper   Great Circle Mapper
Great Circle Mapper FAQ   Great Circle Mapper FAQ
  Karl's Home Page
KLSē   KLSē Home
   GC on Facebook
Airlines of the World   Airlines of the World
Donate via PayPal


Copyright © 2004-2019, Karl L. Swartz. All rights reserved.
All trademarks mentioned herein belong to their respective owners.

Please see credits for attribution and copyright information.

Karl Swartz <karl@kls2.com>
  Powered by FreeBSD
Valid HTML 4.01!
Labeled with ICRA
hCard Microformat
Geo Microformat